Woodruff, Arizona
Current Conditions -  °F | °C
As of 10:35 PM on Wednesday 26 Nov 2014 (Local Time) from KSOW Reporting Station
Clear Clear  
Wind Chill: 27°   Ceiling: Unl
Heat Index: 32°   Visibility: 10mi
Dew Point: 14°   Wind: 5mph
Humidity: 47%   Direction: 30°NNE
Pressure: 30.49"   Gusts: NA
Location:  34.78°N, 110.04°W
Report Text: KSOW 270535Z AUTO 03004KT 10SM CLR 00/M10 A3049 RMK AO2
Loading
Personal Weather Stations






























Interactive Weather Map New forecast layout! Learn more

10-Day Weather Forecast

Advertisements
Track Severe Weather on mobile